sensor_id;sensor_type;location;lat;lon;timestamp;pressure;altitude;pressure_sealevel;temperature;humidity
23619;BME280;18207;32.078;34.818;2024-02-23T00:02:23;101450.56;;;22.34;43.73
23619;BME280;18207;32.078;34.818;2024-02-23T00:04:53;101453.38;;;22.34;43.92
23619;BME280;18207;32.078;34.818;2024-02-23T00:07:23;101453.38;;;22.34;43.70
23619;BME280;18207;32.078;34.818;2024-02-23T00:09:52;101457.81;;;22.35;43.50
23619;BME280;18207;32.078;34.818;2024-02-23T00:12:24;101461.47;;;22.36;44.23
23619;BME280;18207;32.078;34.818;2024-02-23T00:14:54;101463.13;;;22.37;43.74
23619;BME280;18207;32.078;34.818;2024-02-23T00:17:24;101455.53;;;22.37;43.76
23619;BME280;18207;32.078;34.818;2024-02-23T00:19:54;101459.13;;;22.38;43.99
23619;BME280;18207;32.078;34.818;2024-02-23T00:22:23;101457.53;;;22.37;43.68
23619;BME280;18207;32.078;34.818;2024-02-23T00:24:53;101454.22;;;22.35;43.61
23619;BME280;18207;32.078;34.818;2024-02-23T00:27:24;101450.56;;;22.34;44.21
23619;BME280;18207;32.078;34.818;2024-02-23T00:29:54;101457.31;;;22.33;43.47
23619;BME280;18207;32.078;34.818;2024-02-23T00:32:23;101459.66;;;22.31;43.93
23619;BME280;18207;32.078;34.818;2024-02-23T00:34:53;101459.13;;;22.29;43.85
23619;BME280;18207;32.078;34.818;2024-02-23T00:37:24;101463.06;;;22.28;43.83
23619;BME280;18207;32.078;34.818;2024-02-23T00:39:53;101460.63;;;22.27;44.06
23619;BME280;18207;32.078;34.818;2024-02-23T00:42:24;101454.53;;;22.25;43.62
23619;BME280;18207;32.078;34.818;2024-02-23T00:44:54;101454.03;;;22.23;43.79
23619;BME280;18207;32.078;34.818;2024-02-23T00:47:23;101458.31;;;22.20;43.53
23619;BME280;18207;32.078;34.818;2024-02-23T00:50:02;101471.47;;;22.20;43.95
23619;BME280;18207;32.078;34.818;2024-02-23T00:52:31;101481.34;;;22.17;44.27
23619;BME280;18207;32.078;34.818;2024-02-23T00:55:02;101479.38;;;22.18;43.60
23619;BME280;18207;32.078;34.818;2024-02-23T00:57:33;101476.91;;;22.16;44.00
23619;BME280;18207;32.078;34.818;2024-02-23T01:00:04;101482.50;;;22.16;43.92
23619;BME280;18207;32.078;34.818;2024-02-23T01:02:34;101487.28;;;22.16;43.92
23619;BME280;18207;32.078;34.818;2024-02-23T01:05:05;101486.94;;;22.17;44.03
23619;BME280;18207;32.078;34.818;2024-02-23T01:07:37;101477.75;;;22.17;43.86
23619;BME280;18207;32.078;34.818;2024-02-23T01:10:07;101476.09;;;22.16;43.88
23619;BME280;18207;32.078;34.818;2024-02-23T01:12:39;101472.44;;;22.15;43.85
23619;BME280;18207;32.078;34.818;2024-02-23T01:15:09;101471.94;;;22.13;44.08
23619;BME280;18207;32.078;34.818;2024-02-23T01:17:39;101457.47;;;22.11;43.70
23619;BME280;18207;32.078;34.818;2024-02-23T01:20:10;101455.34;;;22.08;43.62
23619;BME280;18207;32.078;34.818;2024-02-23T01:22:40;101458.47;;;22.07;43.87
23619;BME280;18207;32.078;34.818;2024-02-23T01:25:09;101465.22;;;22.06;44.21
23619;BME280;18207;32.078;34.818;2024-02-23T01:27:41;101454.84;;;22.06;44.07
23619;BME280;18207;32.078;34.818;2024-02-23T01:30:12;101457.13;;;22.04;43.99
23619;BME280;18207;32.078;34.818;2024-02-23T01:32:42;101455.16;;;22.05;44.17
23619;BME280;18207;32.078;34.818;2024-02-23T01:35:12;101452.38;;;22.05;43.79
23619;BME280;18207;32.078;34.818;2024-02-23T01:37:42;101454.03;;;22.06;43.98
23619;BME280;18207;32.078;34.818;2024-02-23T01:40:12;101461.56;;;22.05;43.90
23619;BME280;18207;32.078;34.818;2024-02-23T01:42:43;101469.16;;;22.05;44.05
23619;BME280;18207;32.078;34.818;2024-02-23T01:45:13;101466.69;;;22.03;44.36
23619;BME280;18207;32.078;34.818;2024-02-23T01:47:42;101474.59;;;22.01;43.86
23619;BME280;18207;32.078;34.818;2024-02-23T01:50:12;101484.44;;;21.99;43.70
23619;BME280;18207;32.078;34.818;2024-02-23T01:52:42;101487.59;;;21.97;43.77
23619;BME280;18207;32.078;34.818;2024-02-23T01:55:12;101497.97;;;21.97;44.25
23619;BME280;18207;32.078;34.818;2024-02-23T01:57:46;101502.41;;;21.98;44.28
23619;BME280;18207;32.078;34.818;2024-02-23T02:00:18;101508.84;;;21.98;44.29
23619;BME280;18207;32.078;34.818;2024-02-23T02:02:49;101505.69;;;22.00;44.08
23619;BME280;18207;32.078;34.818;2024-02-23T02:05:18;101509.34;;;22.00;44.06
23619;BME280;18207;32.078;34.818;2024-02-23T02:07:51;101515.44;;;22.02;44.16
23619;BME280;18207;32.078;34.818;2024-02-23T02:10:22;101512.78;;;21.97;43.94
23619;BME280;18207;32.078;34.818;2024-02-23T02:12:54;101507.81;;;21.94;43.89
23619;BME280;18207;32.078;34.818;2024-02-23T02:15:23;101518.84;;;21.91;44.05
23619;BME280;18207;32.078;34.818;2024-02-23T02:17:53;101517.53;;;21.88;43.93
23619;BME280;18207;32.078;34.818;2024-02-23T02:20:25;101519.03;;;21.86;44.22
23619;BME280;18207;32.078;34.818;2024-02-23T02:22:55;101514.22;;;21.86;44.40
23619;BME280;18207;32.078;34.818;2024-02-23T02:25:24;101523.47;;;21.87;43.94
23619;BME280;18207;32.078;34.818;2024-02-23T02:27:55;101530.72;;;21.88;44.63
23619;BME280;18207;32.078;34.818;2024-02-23T02:30:25;101523.94;;;21.89;44.15
23619;BME280;18207;32.078;34.818;2024-02-23T02:33:00;101522.50;;;21.91;44.42
23619;BME280;18207;32.078;34.818;2024-02-23T02:35:30;101519.34;;;21.93;44.50
23619;BME280;18207;32.078;34.818;2024-02-23T02:37:59;101515.91;;;21.96;44.59
23619;BME280;18207;32.078;34.818;2024-02-23T02:40:29;101505.53;;;21.96;44.59
23619;BME280;18207;32.078;34.818;2024-02-23T02:43:01;101506.69;;;21.95;44.04
23619;BME280;18207;32.078;34.818;2024-02-23T02:45:31;101500.28;;;21.95;43.80
23619;BME280;18207;32.078;34.818;2024-02-23T02:48:01;101496.16;;;21.92;44.08
23619;BME280;18207;32.078;34.818;2024-02-23T02:50:31;101498.13;;;21.92;43.92
23619;BME280;18207;32.078;34.818;2024-02-23T02:53:01;101499.59;;;21.89;44.40
23619;BME280;18207;32.078;34.818;2024-02-23T02:55:31;101501.25;;;21.90;44.15
23619;BME280;18207;32.078;34.818;2024-02-23T02:58:03;101487.75;;;21.92;44.63
23619;BME280;18207;32.078;34.818;2024-02-23T03:00:32;101477.38;;;21.93;44.27
23619;BME280;18207;32.078;34.818;2024-02-23T03:03:02;101481.81;;;21.94;44.51
23619;BME280;18207;32.078;34.818;2024-02-23T03:05:32;101479.84;;;21.94;44.62
23619;BME280;18207;32.078;34.818;2024-02-23T03:08:01;101495.19;;;21.97;44.17
23619;BME280;18207;32.078;34.818;2024-02-23T03:10:37;101499.59;;;21.98;44.23
23619;BME280;18207;32.078;34.818;2024-02-23T03:13:08;101496.50;;;21.99;44.22
23619;BME280;18207;32.078;34.818;2024-02-23T03:15:38;101489.75;;;22.00;44.46
23619;BME280;18207;32.078;34.818;2024-02-23T03:18:07;101481.00;;;22.02;44.71
23619;BME280;18207;32.078;34.818;2024-02-23T03:20:38;101495.00;;;22.02;44.34
23619;BME280;18207;32.078;34.818;2024-02-23T03:23:08;101495.84;;;22.02;44.60
23619;BME280;18207;32.078;34.818;2024-02-23T03:25:38;101485.78;;;22.01;44.48
23619;BME280;18207;32.078;34.818;2024-02-23T03:28:09;101460.09;;;21.99;44.07
23619;BME280;18207;32.078;34.818;2024-02-23T03:30:52;101473.94;;;21.96;44.26
23619;BME280;18207;32.078;34.818;2024-02-23T03:33:21;101478.53;;;21.92;44.50
23619;BME280;18207;32.078;34.818;2024-02-23T03:35:51;101467.97;;;21.89;44.10
23619;BME280;18207;32.078;34.818;2024-02-23T03:38:21;101469.47;;;21.86;44.33
23619;BME280;18207;32.078;34.818;2024-02-23T03:40:50;101477.34;;;21.84;44.28
23619;BME280;18207;32.078;34.818;2024-02-23T03:43:22;101486.09;;;21.83;44.25
23619;BME280;18207;32.078;34.818;2024-02-23T03:45:51;101473.25;;;21.82;44.41
23619;BME280;18207;32.078;34.818;2024-02-23T03:48:21;101464.84;;;21.82;44.50
23619;BME280;18207;32.078;34.818;2024-02-23T03:50:51;101461.72;;;21.83;44.59
23619;BME280;18207;32.078;34.818;2024-02-23T03:53:22;101468.97;;;21.84;44.67
23619;BME280;18207;32.078;34.818;2024-02-23T03:55:51;101457.47;;;21.86;44.70
23619;BME280;18207;32.078;34.818;2024-02-23T03:58:52;101457.97;;;21.88;44.35
23619;BME280;18207;32.078;34.818;2024-02-23T04:01:22;101463.56;;;21.88;44.91
23619;BME280;18207;32.078;34.818;2024-02-23T04:03:52;101454.81;;;21.89;44.73
23619;BME280;18207;32.078;34.818;2024-02-23T04:06:21;101450.88;;;21.90;44.55
23619;BME280;18207;32.078;34.818;2024-02-23T04:08:51;101456.13;;;21.92;44.39
23619;BME280;18207;32.078;34.818;2024-02-23T04:11:21;101450.19;;;21.93;44.75
23619;BME280;18207;32.078;34.818;2024-02-23T04:13:52;101451.03;;;21.94;44.42
23619;BME280;18207;32.078;34.818;2024-02-23T04:16:26;101459.09;;;21.95;44.26
23619;BME280;18207;32.078;34.818;2024-02-23T04:18:56;101454.34;;;21.96;44.84
23619;BME280;18207;32.078;34.818;2024-02-23T04:21:25;101443.97;;;21.96;44.92
23619;BME280;18207;32.078;34.818;2024-02-23T04:23:55;101451.22;;;21.97;44.42
23619;BME280;18207;32.078;34.818;2024-02-23T04:26:24;101463.22;;;21.98;44.59
23619;BME280;18207;32.078;34.818;2024-02-23T04:28:56;101475.75;;;22.00;44.46
23619;BME280;18207;32.078;34.818;2024-02-23T04:31:26;101481.66;;;21.99;44.60
23619;BME280;18207;32.078;34.818;2024-02-23T04:33:55;101495.34;;;22.00;44.58
23619;BME280;18207;32.078;34.818;2024-02-23T04:36:25;101497.00;;;22.01;44.75
23619;BME280;18207;32.078;34.818;2024-02-23T04:38:54;101503.75;;;22.00;44.42
23619;BME280;18207;32.078;34.818;2024-02-23T04:41:24;101498.66;;;22.02;44.12
23619;BME280;18207;32.078;34.818;2024-02-23T04:43:56;101498.66;;;22.02;44.73
23619;BME280;18207;32.078;34.818;2024-02-23T04:46:31;101506.19;;;22.02;44.38
23619;BME280;18207;32.078;34.818;2024-02-23T04:49:02;101497.31;;;22.00;44.85
23619;BME280;18207;32.078;34.818;2024-02-23T04:51:32;101492.22;;;22.02;44.64
23619;BME280;18207;32.078;34.818;2024-02-23T04:54:01;101502.59;;;22.01;44.49
23619;BME280;18207;32.078;34.818;2024-02-23T04:56:31;101518.88;;;21.99;44.78
23619;BME280;18207;32.078;34.818;2024-02-23T04:59:03;101516.09;;;21.99;44.40
23619;BME280;18207;32.078;34.818;2024-02-23T05:01:36;101508.00;;;21.98;44.56
23619;BME280;18207;32.078;34.818;2024-02-23T05:04:06;101511.97;;;21.97;44.58
23619;BME280;18207;32.078;34.818;2024-02-23T05:06:39;101508.31;;;21.96;44.85
23619;BME280;18207;32.078;34.818;2024-02-23T05:09:28;101515.56;;;21.97;44.68
23619;BME280;18207;32.078;34.818;2024-02-23T05:11:58;101528.75;;;21.97;44.66
23619;BME280;18207;32.078;34.818;2024-02-23T05:14:30;101520.84;;;21.99;44.76
23619;BME280;18207;32.078;34.818;2024-02-23T05:17:00;101519.69;;;22.00;45.01
23619;BME280;18207;32.078;34.818;2024-02-23T05:19:29;101520.19;;;22.02;44.92
23619;BME280;18207;32.078;34.818;2024-02-23T05:21:59;101524.16;;;22.01;44.64
23619;BME280;18207;32.078;34.818;2024-02-23T05:24:29;101525.28;;;22.00;45.11
23619;BME280;18207;32.078;34.818;2024-02-23T05:26:58;101517.22;;;21.98;44.70
23619;BME280;18207;32.078;34.818;2024-02-23T05:29:32;101528.44;;;21.98;45.05
23619;BME280;18207;32.078;34.818;2024-02-23T05:32:01;101516.72;;;21.96;44.86
23619;BME280;18207;32.078;34.818;2024-02-23T05:34:31;101506.69;;;21.95;44.58
23619;BME280;18207;32.078;34.818;2024-02-23T05:37:01;101502.56;;;21.93;44.77
23619;BME280;18207;32.078;34.818;2024-02-23T05:39:31;101518.53;;;21.92;44.54
23619;BME280;18207;32.078;34.818;2024-02-23T05:42:00;101530.88;;;21.91;44.88
23619;BME280;18207;32.078;34.818;2024-02-23T05:44:32;101528.56;;;21.93;44.78
23619;BME280;18207;32.078;34.818;2024-02-23T05:47:01;101520.16;;;21.93;45.29
23619;BME280;18207;32.078;34.818;2024-02-23T05:49:31;101521.81;;;21.94;44.71
23619;BME280;18207;32.078;34.818;2024-02-23T05:52:01;101529.41;;;21.94;44.74
23619;BME280;18207;32.078;34.818;2024-02-23T05:54:31;101536.66;;;21.95;44.72
23619;BME280;18207;32.078;34.818;2024-02-23T05:57:01;101526.59;;;21.94;45.04
23619;BME280;18207;32.078;34.818;2024-02-23T05:59:32;101505.38;;;21.93;44.73
23619;BME280;18207;32.078;34.818;2024-02-23T06:02:01;101500.91;;;21.92;44.78
23619;BME280;18207;32.078;34.818;2024-02-23T06:04:31;101515.75;;;21.92;44.91
23619;BME280;18207;32.078;34.818;2024-02-23T06:07:01;101519.34;;;21.93;45.05
23619;BME280;18207;32.078;34.818;2024-02-23T06:09:31;101518.22;;;21.94;44.80
23619;BME280;18207;32.078;34.818;2024-02-23T06:12:00;101532.19;;;21.94;45.08
23619;BME280;18207;32.078;34.818;2024-02-23T06:14:33;101530.72;;;21.96;45.40
23619;BME280;18207;32.078;34.818;2024-02-23T06:17:03;101535.16;;;21.97;45.51
23619;BME280;18207;32.078;34.818;2024-02-23T06:19:34;101523.63;;;21.99;45.12
23619;BME280;18207;32.078;34.818;2024-02-23T06:22:05;101521.03;;;22.02;45.46
23619;BME280;18207;32.078;34.818;2024-02-23T06:24:38;101519.56;;;22.05;45.42
23619;BME280;18207;32.078;34.818;2024-02-23T06:27:08;101530.06;;;22.08;45.18
23619;BME280;18207;32.078;34.818;2024-02-23T06:29:39;101547.88;;;22.12;45.75
23619;BME280;18207;32.078;34.818;2024-02-23T06:32:09;101556.44;;;22.15;45.67
23619;BME280;18207;32.078;34.818;2024-02-23T06:34:39;101559.41;;;22.19;45.75
23619;BME280;18207;32.078;34.818;2024-02-23T06:37:11;101564.88;;;22.24;45.51
23619;BME280;18207;32.078;34.818;2024-02-23T06:39:41;101551.03;;;22.27;45.45
23619;BME280;18207;32.078;34.818;2024-02-23T06:42:12;101531.28;;;22.32;45.55
23619;BME280;18207;32.078;34.818;2024-02-23T06:44:44;101537.09;;;22.36;45.62
23619;BME280;18207;32.078;34.818;2024-02-23T06:47:13;101552.06;;;22.40;45.09
23619;BME280;18207;32.078;34.818;2024-02-23T06:49:43;101553.38;;;22.42;45.31
23619;BME280;18207;32.078;34.818;2024-02-23T06:52:13;101568.38;;;22.46;45.66
23619;BME280;18207;32.078;34.818;2024-02-23T06:54:42;101565.75;;;22.49;45.64
23619;BME280;18207;32.078;34.818;2024-02-23T06:57:13;101565.09;;;22.52;45.23
23619;BME280;18207;32.078;34.818;2024-02-23T06:59:44;101565.25;;;22.56;45.51
23619;BME280;18207;32.078;34.818;2024-02-23T07:02:17;101587.03;;;22.59;45.15
23619;BME280;18207;32.078;34.818;2024-02-23T07:04:46;101595.94;;;22.61;45.70
23619;BME280;18207;32.078;34.818;2024-02-23T07:07:16;101579.59;;;22.63;45.22
23619;BME280;18207;32.078;34.818;2024-02-23T07:09:45;101576.94;;;22.66;45.50
23619;BME280;18207;32.078;34.818;2024-02-23T07:12:15;101589.81;;;22.67;45.22
23619;BME280;18207;32.078;34.818;2024-02-23T07:14:46;101594.75;;;22.70;45.26
23619;BME280;18207;32.078;34.818;2024-02-23T07:17:17;101586.84;;;22.72;45.09
23619;BME280;18207;32.078;34.818;2024-02-23T07:19:47;101587.00;;;22.76;45.20
23619;BME280;18207;32.078;34.818;2024-02-23T07:22:20;101585.53;;;22.78;45.21
23619;BME280;18207;32.078;34.818;2024-02-23T07:24:50;101579.25;;;22.81;45.28
23619;BME280;18207;32.078;34.818;2024-02-23T07:27:24;101577.78;;;22.84;45.50
23619;BME280;18207;32.078;34.818;2024-02-23T07:29:55;101565.91;;;22.87;45.39
23619;BME280;18207;32.078;34.818;2024-02-23T07:32:25;101563.91;;;22.87;45.69
23619;BME280;18207;32.078;34.818;2024-02-23T07:35:08;101558.16;;;22.92;45.34
23619;BME280;18207;32.078;34.818;2024-02-23T07:37:38;101556.16;;;22.93;45.42
23619;BME280;18207;32.078;34.818;2024-02-23T07:40:09;101566.72;;;22.96;45.69
23619;BME280;18207;32.078;34.818;2024-02-23T07:42:38;101576.94;;;23.00;45.60
23619;BME280;18207;32.078;34.818;2024-02-23T07:45:10;101559.47;;;23.03;45.39
23619;BME280;18207;32.078;34.818;2024-02-23T07:47:40;101560.78;;;23.06;45.41
23619;BME280;18207;32.078;34.818;2024-02-23T07:50:10;101577.78;;;23.09;45.46
23619;BME280;18207;32.078;34.818;2024-02-23T07:52:40;101585.53;;;23.12;45.38
23619;BME280;18207;32.078;34.818;2024-02-23T07:55:10;101580.41;;;23.14;45.19
23619;BME280;18207;32.078;34.818;2024-02-23T07:57:43;101560.94;;;23.18;45.26
23619;BME280;18207;32.078;34.818;2024-02-23T08:00:21;101550.69;;;23.22;45.52
23619;BME280;18207;32.078;34.818;2024-02-23T08:02:54;101552.84;;;23.25;45.61
23619;BME280;18207;32.078;34.818;2024-02-23T08:05:24;101554.97;;;23.28;45.52
23619;BME280;18207;32.078;34.818;2024-02-23T08:07:54;101568.00;;;23.32;45.16
23619;BME280;18207;32.078;34.818;2024-02-23T08:10:24;101568.16;;;23.35;45.62
23619;BME280;18207;32.078;34.818;2024-02-23T08:12:53;101566.34;;;23.39;45.50
23619;BME280;18207;32.078;34.818;2024-02-23T08:15:25;101588.59;;;23.44;45.31
23619;BME280;18207;32.078;34.818;2024-02-23T08:17:54;101596.34;;;23.47;45.51
23619;BME280;18207;32.078;34.818;2024-02-23T08:20:24;101598.13;;;23.52;45.32
23619;BME280;18207;32.078;34.818;2024-02-23T08:22:54;101593.47;;;23.56;45.38
23619;BME280;18207;32.078;34.818;2024-02-23T08:25:24;101594.13;;;23.61;45.20
23619;BME280;18207;32.078;34.818;2024-02-23T08:27:58;101582.72;;;23.66;45.40
23619;BME280;18207;32.078;34.818;2024-02-23T08:30:35;101563.22;;;23.70;45.39
23619;BME280;18207;32.078;34.818;2024-02-23T08:33:10;101560.56;;;23.73;45.55
23619;BME280;18207;32.078;34.818;2024-02-23T08:35:44;101561.91;;;23.76;45.24
23619;BME280;18207;32.078;34.818;2024-02-23T08:38:16;101576.91;;;23.80;45.40
23619;BME280;18207;32.078;34.818;2024-02-23T08:40:46;101589.44;;;23.82;45.38
23619;BME280;18207;32.078;34.818;2024-02-23T08:43:27;101588.44;;;23.87;45.06
23619;BME280;18207;32.078;34.818;2024-02-23T08:45:59;101591.75;;;23.89;44.82
23619;BME280;18207;32.078;34.818;2024-02-23T08:48:35;101581.00;;;23.91;44.92
23619;BME280;18207;32.078;34.818;2024-02-23T08:51:05;101573.53;;;23.95;45.17
23619;BME280;18207;32.078;34.818;2024-02-23T08:53:35;101572.88;;;23.98;45.20
23619;BME280;18207;32.078;34.818;2024-02-23T08:56:06;101564.25;;;24.03;45.10
23619;BME280;18207;32.078;34.818;2024-02-23T08:58:39;101549.50;;;24.06;44.92
23619;BME280;18207;32.078;34.818;2024-02-23T09:01:12;101531.66;;;24.10;45.11
23619;BME280;18207;32.078;34.818;2024-02-23T09:03:41;101542.22;;;24.13;44.95
23619;BME280;18207;32.078;34.818;2024-02-23T09:06:11;101563.66;;;24.17;44.99
23619;BME280;18207;32.078;34.818;2024-02-23T09:08:41;101553.41;;;24.21;44.84
23619;BME280;18207;32.078;34.818;2024-02-23T09:11:11;101552.38;;;24.26;45.12
23619;BME280;18207;32.078;34.818;2024-02-23T09:13:43;101555.31;;;24.29;45.04
23619;BME280;18207;32.078;34.818;2024-02-23T09:16:17;101551.47;;;24.34;45.03
23619;BME280;18207;32.078;34.818;2024-02-23T09:18:47;101560.84;;;24.38;44.84
23619;BME280;18207;32.078;34.818;2024-02-23T09:21:18;101565.00;;;24.40;44.99
23619;BME280;18207;32.078;34.818;2024-02-23T09:23:48;101563.47;;;24.43;44.76
23619;BME280;18207;32.078;34.818;2024-02-23T09:26:18;101548.78;;;24.46;44.95
23619;BME280;18207;32.078;34.818;2024-02-23T09:28:48;101541.66;;;24.48;44.70
23619;BME280;18207;32.078;34.818;2024-02-23T09:31:20;101521.31;;;24.51;44.78
23619;BME280;18207;32.078;34.818;2024-02-23T09:33:50;101533.00;;;24.53;44.75
23619;BME280;18207;32.078;34.818;2024-02-23T09:36:21;101543.91;;;24.55;44.77
23619;BME280;18207;32.078;34.818;2024-02-23T09:38:51;101544.41;;;24.57;44.63
23619;BME280;18207;32.078;34.818;2024-02-23T09:41:23;101522.38;;;24.59;44.79
23619;BME280;18207;32.078;34.818;2024-02-23T09:43:56;101514.41;;;24.61;44.50
23619;BME280;18207;32.078;34.818;2024-02-23T09:46:30;101501.22;;;24.61;44.70
23619;BME280;18207;32.078;34.818;2024-02-23T09:49:02;101504.81;;;24.62;44.55
23619;BME280;18207;32.078;34.818;2024-02-23T09:51:33;101504.47;;;24.63;44.64
23619;BME280;18207;32.078;34.818;2024-02-23T09:54:04;101514.56;;;24.64;44.37
23619;BME280;18207;32.078;34.818;2024-02-23T09:56:34;101527.44;;;24.65;44.88
23619;BME280;18207;32.078;34.818;2024-02-23T09:59:05;101509.41;;;24.66;44.68
23619;BME280;18207;32.078;34.818;2024-02-23T10:01:37;101497.81;;;24.68;44.91
23619;BME280;18207;32.078;34.818;2024-02-23T10:04:07;101497.50;;;24.69;44.75
23619;BME280;18207;32.078;34.818;2024-02-23T10:06:37;101497.13;;;24.71;44.71
23619;BME280;18207;32.078;34.818;2024-02-23T10:09:08;101478.75;;;24.73;44.74
23619;BME280;18207;32.078;34.818;2024-02-23T10:11:40;101462.72;;;24.74;44.43
23619;BME280;18207;32.078;34.818;2024-02-23T10:14:11;101453.13;;;24.75;44.58
23619;BME280;18207;32.078;34.818;2024-02-23T10:16:42;101455.56;;;24.76;44.53
23619;BME280;18207;32.078;34.818;2024-02-23T10:19:12;101449.94;;;24.76;44.67
23619;BME280;18207;32.078;34.818;2024-02-23T10:21:42;101454.41;;;24.77;44.64
23619;BME280;18207;32.078;34.818;2024-02-23T10:24:12;101450.78;;;24.77;44.57
23619;BME280;18207;32.078;34.818;2024-02-23T10:26:42;101449.59;;;24.78;44.48
23619;BME280;18207;32.078;34.818;2024-02-23T10:29:13;101443.16;;;24.77;44.46
23619;BME280;18207;32.078;34.818;2024-02-23T10:31:47;101454.41;;;24.77;44.44
23619;BME280;18207;32.078;34.818;2024-02-23T10:34:20;101455.22;;;24.78;44.51
23619;BME280;18207;32.078;34.818;2024-02-23T10:36:49;101435.88;;;24.76;44.72
23619;BME280;18207;32.078;34.818;2024-02-23T10:39:23;101417.84;;;24.77;44.46
23619;BME280;18207;32.078;34.818;2024-02-23T10:41:59;101423.47;;;24.77;44.36
23619;BME280;18207;32.078;34.818;2024-02-23T10:44:32;101433.06;;;24.76;44.41
23619;BME280;18207;32.078;34.818;2024-02-23T10:47:09;101453.91;;;24.75;44.47
23619;BME280;18207;32.078;34.818;2024-02-23T10:49:41;101459.53;;;24.75;44.63
23619;BME280;18207;32.078;34.818;2024-02-23T10:52:15;101453.59;;;24.77;44.57
23619;BME280;18207;32.078;34.818;2024-02-23T10:54:47;101433.06;;;24.76;44.66
23619;BME280;18207;32.078;34.818;2024-02-23T10:57:18;101416.56;;;24.75;44.44
23619;BME280;18207;32.078;34.818;2024-02-23T10:59:48;101431.44;;;24.75;44.60
23619;BME280;18207;32.078;34.818;2024-02-23T11:02:23;101422.66;;;24.77;44.54
23619;BME280;18207;32.078;34.818;2024-02-23T11:04:58;101417.84;;;24.77;44.63
23619;BME280;18207;32.078;34.818;2024-02-23T11:07:30;101402.16;;;24.76;44.41
23619;BME280;18207;32.078;34.818;2024-02-23T11:10:00;101397.38;;;24.77;44.45
23619;BME280;18207;32.078;34.818;2024-02-23T11:12:30;101401.78;;;24.78;44.68
23619;BME280;18207;32.078;34.818;2024-02-23T11:15:01;101407.41;;;24.78;44.65
23619;BME280;18207;32.078;34.818;2024-02-23T11:17:36;101436.38;;;24.78;44.61
23619;BME280;18207;32.078;34.818;2024-02-23T11:20:07;101449.25;;;24.79;44.65
23619;BME280;18207;32.078;34.818;2024-02-23T11:22:38;101452.06;;;24.79;44.78
23619;BME280;18207;32.078;34.818;2024-02-23T11:25:09;101454.88;;;24.79;44.49
23619;BME280;18207;32.078;34.818;2024-02-23T11:27:40;101440.00;;;24.79;44.38
23619;BME280;18207;32.078;34.818;2024-02-23T11:30:12;101439.19;;;24.78;44.65
23619;BME280;18207;32.078;34.818;2024-02-23T11:32:48;101431.56;;;24.79;44.27
23619;BME280;18207;32.078;34.818;2024-02-23T11:35:27;101441.50;;;24.76;44.72
23619;BME280;18207;32.078;34.818;2024-02-23T11:37:58;101437.06;;;24.75;44.44
23619;BME280;18207;32.078;34.818;2024-02-23T11:40:34;101434.25;;;24.75;44.42
23619;BME280;18207;32.078;34.818;2024-02-23T11:43:05;101429.78;;;24.74;44.57
23619;BME280;18207;32.078;34.818;2024-02-23T11:45:36;101425.34;;;24.73;44.61
23619;BME280;18207;32.078;34.818;2024-02-23T11:48:08;101425.34;;;24.73;44.48
23619;BME280;18207;32.078;34.818;2024-02-23T11:50:38;101418.06;;;24.72;44.61
23619;BME280;18207;32.078;34.818;2024-02-23T11:53:17;101414.91;;;24.74;44.53
23619;BME280;18207;32.078;34.818;2024-02-23T11:55:54;101403.19;;;24.72;44.67
23619;BME280;18207;32.078;34.818;2024-02-23T11:58:24;101403.19;;;24.72;44.74
23619;BME280;18207;32.078;34.818;2024-02-23T12:00:54;101404.84;;;24.73;44.63
23619;BME280;18207;32.078;34.818;2024-02-23T12:03:26;101402.84;;;24.73;44.54
23619;BME280;18207;32.078;34.818;2024-02-23T12:05:57;101409.63;;;24.72;44.36
23619;BME280;18207;32.078;34.818;2024-02-23T12:08:30;101409.63;;;24.72;44.67
23619;BME280;18207;32.078;34.818;2024-02-23T12:11:07;101399.59;;;24.71;44.50
23619;BME280;18207;32.078;34.818;2024-02-23T12:13:38;101399.59;;;24.71;44.39
23619;BME280;18207;32.078;34.818;2024-02-23T12:16:08;101390.31;;;24.71;44.59
23619;BME280;18207;32.078;34.818;2024-02-23T12:18:43;101388.34;;;24.71;44.50
23619;BME280;18207;32.078;34.818;2024-02-23T12:21:13;101379.06;;;24.71;44.50
23619;BME280;18207;32.078;34.818;2024-02-23T12:23:45;101368.66;;;24.71;44.45
23619;BME280;18207;32.078;34.818;2024-02-23T12:26:16;101371.47;;;24.71;44.27
23619;BME280;18207;32.078;34.818;2024-02-23T12:28:47;101376.25;;;24.71;44.74
23619;BME280;18207;32.078;34.818;2024-02-23T12:31:23;101376.25;;;24.71;44.44
23619;BME280;18207;32.078;34.818;2024-02-23T12:33:58;101372.63;;;24.70;44.44
23619;BME280;18207;32.078;34.818;2024-02-23T12:36:30;101363.38;;;24.70;44.51
23619;BME280;18207;32.078;34.818;2024-02-23T12:39:03;101373.81;;;24.69;44.32
23619;BME280;18207;32.078;34.818;2024-02-23T12:41:33;101364.53;;;24.69;44.54
23619;BME280;18207;32.078;34.818;2024-02-23T12:44:03;101358.91;;;24.69;44.37
23619;BME280;18207;32.078;34.818;2024-02-23T12:46:33;101357.25;;;24.68;44.58
23619;BME280;18207;32.078;34.818;2024-02-23T12:49:06;101363.72;;;24.68;44.37
23619;BME280;18207;32.078;34.818;2024-02-23T12:51:36;101365.69;;;24.68;44.38
23619;BME280;18207;32.078;34.818;2024-02-23T12:54:06;101368.50;;;24.68;44.33
23619;BME280;18207;32.078;34.818;2024-02-23T12:56:36;101378.59;;;24.69;44.57
23619;BME280;18207;32.078;34.818;2024-02-23T12:59:06;101383.41;;;24.68;44.43
23619;BME280;18207;32.078;34.818;2024-02-23T13:01:38;101377.41;;;24.70;44.54